Decoded Metar for WMKA (ALOR SETAR in MALAYSIA) (IATA:AOR) | Meteo·Mobile Aviation Weather
aviador You're here:

WMKA Decoded Metar

ALOR SETAR in MALAYSIA
Report Time2020-02-22 21:00:00
UTC Time2020-02-22 21:39:35
Flight Rules vfr VFR
Wind050° at 04 kt
W.Decomp.*RWY 04: 3.9 kt HW 0.7 kt RCW
Visibility9000 m
Phenomena:N/A
Clouds:Few 030 Hf
Expected CloudBase > 1,200 ft AGL from Temp-Dew spread
CeilingNone
Temp26°C (ISA +11)
Dew Point23°C (84% RH)
QNH1012 hPa
Density Alt1,693 ft
Elevation16 ft
Report Wrong Elevation
Raw Report
WMKA 222100Z 05004KT 350V110 9000 FEW030 26/23 Q1012=

Extra information for WMKA:More info

Metar Taf Metar & Taf Last 4 Metars F.Rules Stats Wind Profile Meteogram Temp Stats Airport Information Weather charts Add Link Nearby VenuesMetar ALERT Operation Metar Decoded Social comments